LCA weather

Larnaca International Airport
Larnarca, Larnarca District, Cyprus

Public forecast

Using degrees Celsius for public forecast. Weather courtesy of forecast.io.

Current aviation weather report (METAR) for Larnaca International Airport

Retrieved 2019/11/13 11:30 UTC (17 minutes ago):

LCLK 131130Z 04010KT CAVOK 27/11 Q1013 NOSIG

Aviation forecast (TAF) for Larnaca International Airport

Retrieved 2019/11/13 06:30 UTC (5 hours ago):

TAF LCLK 130530Z 1306/1406 36008KT CAVOK BECMG 1306/1308 06014KT BECMG 1316/1319 36009KT